Time;durP1;ratioP1;P1;durP2;ratioP2;P2;SDS_P1;SDS_P2;PMS_P1;PMS_P2;Temp;Humidity;BMP_temperature;BMP_pressure;BME280_temperature;BME280_humidity;BME280_pressure;Samples;Min_cycle;Max_cycle;Signal;HPM_P1;HPM_P2
2021/01/12 00:02:19;;;;;;;5.73;3.23;;;1.40;99.90;;;;;;5073901;28;20193;-59
2021/01/12 00:04:46;;;;;;;7.47;4.85;;;1.40;99.90;;;;;;5071879;28;20507;-59
2021/01/12 00:07:12;;;;;;;7.88;3.15;;;1.40;99.90;;;;;;5068956;28;20229;-59
2021/01/12 00:09:38;;;;;;;16.15;4.90;;;1.40;99.90;;;;;;5070033;28;20209;-61
2021/01/12 00:12:04;;;;;;;2.78;0.85;;;1.40;99.90;;;;;;5079348;28;20275;-60
2021/01/12 00:14:33;;;;;;;4.00;1.40;;;1.40;99.90;;;;;;5069095;28;20235;-59
2021/01/12 00:17:00;;;;;;;2.58;1.25;;;1.40;99.90;;;;;;5068319;28;20199;-59
2021/01/12 00:19:26;;;;;;;7.70;3.63;;;1.40;99.90;;;;;;5070719;28;20199;-59
2021/01/12 00:21:52;;;;;;;4.03;1.70;;;1.40;99.90;;;;;;5069490;28;20192;-59
2021/01/12 00:24:18;;;;;;;1.80;0.50;;;1.40;99.90;;;;;;5074203;28;20180;-59
2021/01/12 00:26:44;;;;;;;5.57;2.65;;;1.40;99.90;;;;;;5069914;28;20459;-58
2021/01/12 00:29:10;;;;;;;14.27;8.40;;;1.40;99.90;;;;;;5070970;28;20714;-58
2021/01/12 00:31:40;;;;;;;3.97;2.50;;;1.40;99.90;;;;;;5071182;28;20644;-58
2021/01/12 00:34:05;;;;;;;5.65;1.48;;;1.40;99.90;;;;;;5070807;28;20711;-60
2021/01/12 00:36:31;;;;;;;3.23;1.63;;;1.50;99.90;;;;;;5070497;28;20287;-59
2021/01/12 00:38:57;;;;;;;11.20;8.23;;;1.50;99.90;;;;;;5066113;28;20208;-58
2021/01/12 00:41:23;;;;;;;1.70;0.20;;;1.50;99.90;;;;;;5066413;28;20734;-58
2021/01/12 00:43:49;;;;;;;2.17;0.60;;;1.60;99.90;;;;;;5069728;28;20185;-60
2021/01/12 00:46:14;;;;;;;6.97;4.57;;;1.60;99.90;;;;;;5069769;28;20212;-58
2021/01/12 00:48:40;;;;;;;1.70;0.20;;;1.60;99.90;;;;;;5070970;28;20204;-58
2021/01/12 00:51:05;;;;;;;10.17;7.00;;;1.60;99.90;;;;;;5073211;28;20349;-60
2021/01/12 00:53:31;;;;;;;6.87;4.03;;;1.60;99.90;;;;;;5072397;28;20192;-58
2021/01/12 00:55:56;;;;;;;1.70;0.20;;;1.60;99.90;;;;;;5068168;28;20232;-59
2021/01/12 00:58:22;;;;;;;14.17;9.83;;;1.60;99.90;;;;;;5070616;28;20176;-59
2021/01/12 01:00:47;;;;;;;16.07;11.00;;;1.50;99.90;;;;;;5067485;28;20307;-59
2021/01/12 01:03:13;;;;;;;8.37;5.17;;;1.50;99.90;;;;;;5069030;28;20177;-59
2021/01/12 01:05:38;;;;;;;12.13;5.50;;;1.50;99.90;;;;;;5068319;28;20208;-58
2021/01/12 01:08:04;;;;;;;7.60;4.90;;;1.50;99.90;;;;;;5067841;28;20188;-60
2021/01/12 01:10:30;;;;;;;1.80;0.50;;;1.50;99.90;;;;;;5069679;28;20205;-63
2021/01/12 01:12:55;;;;;;;2.27;0.73;;;1.50;99.90;;;;;;5069525;28;20195;-59
2021/01/12 01:15:21;;;;;;;1.70;0.20;;;1.50;99.90;;;;;;5068145;28;20494;-59
2021/01/12 01:17:46;;;;;;;8.30;4.43;;;1.50;99.90;;;;;;5075649;28;20188;-59
2021/01/12 01:20:12;;;;;;;13.70;10.50;;;1.50;99.90;;;;;;5068539;28;20214;-59
2021/01/12 01:22:38;;;;;;;2.00;1.23;;;1.50;99.90;;;;;;5067643;28;20192;-59
2021/01/12 01:25:04;;;;;;;7.63;5.50;;;1.50;99.90;;;;;;5069558;28;20439;-59
2021/01/12 01:27:32;;;;;;;9.07;6.13;;;1.50;99.90;;;;;;5070604;28;20513;-59
2021/01/12 01:29:58;;;;;;;5.22;2.72;;;1.60;99.90;;;;;;5066785;28;20465;-59
2021/01/12 01:32:23;;;;;;;1.70;0.20;;;1.50;99.90;;;;;;5071781;28;20181;-60
2021/01/12 01:34:49;;;;;;;1.87;0.30;;;1.50;99.90;;;;;;5071538;28;20189;-60
2021/01/12 01:37:16;;;;;;;11.67;7.43;;;1.50;99.90;;;;;;5069064;28;20265;-59
2021/01/12 01:39:41;;;;;;;10.98;7.30;;;1.50;99.90;;;;;;5065781;28;20269;-59
2021/01/12 01:42:07;;;;;;;2.90;1.43;;;1.50;99.90;;;;;;5067990;28;20610;-59
2021/01/12 01:44:32;;;;;;;4.43;2.43;;;1.50;99.90;;;;;;5062726;28;20203;-59
2021/01/12 01:46:58;;;;;;;1.70;0.20;;;1.50;99.90;;;;;;5070337;28;20218;-59
2021/01/12 01:49:24;;;;;;;3.77;2.20;;;1.50;99.90;;;;;;5069275;28;20204;-60
2021/01/12 01:51:51;;;;;;;2.28;1.60;;;1.40;99.90;;;;;;5072772;28;20212;-59
2021/01/12 01:54:17;;;;;;;6.50;4.10;;;1.50;99.90;;;;;;5070851;28;20192;-59
2021/01/12 01:56:42;;;;;;;16.40;9.87;;;1.50;99.90;;;;;;5068477;28;20567;-59
2021/01/12 01:59:08;;;;;;;12.40;6.67;;;1.60;99.90;;;;;;5068178;28;20871;-60
2021/01/12 02:01:36;;;;;;;3.97;2.60;;;1.50;99.90;;;;;;5070643;28;20185;-59
2021/01/12 02:04:24;;;;;;;10.93;6.97;;;1.50;99.90;;;;;;5069587;28;20540;-60
2021/01/12 02:06:50;;;;;;;1.70;0.20;;;1.50;99.90;;;;;;5071295;28;20679;-59
2021/01/12 02:09:37;;;;;;;1.73;0.20;;;1.60;99.90;;;;;;5070560;28;20223;-60
2021/01/12 02:12:07;;;;;;;14.95;10.40;;;1.50;99.90;;;;;;5067464;28;20208;-59
2021/01/12 02:14:38;;;;;;;10.32;1.38;;;1.50;99.90;;;;;;5072887;28;20256;-60
2021/01/12 02:17:06;;;;;;;18.70;11.35;;;1.50;99.90;;;;;;5069319;28;20579;-60
2021/01/12 02:19:33;;;;;;;1.70;0.30;;;1.50;99.90;;;;;;5067124;28;20179;-59
2021/01/12 02:22:02;;;;;;;6.75;3.83;;;1.50;99.90;;;;;;5072554;28;20206;-60
2021/01/12 02:24:29;;;;;;;14.02;9.73;;;1.50;99.90;;;;;;5072687;28;20180;-59
2021/01/12 02:26:55;;;;;;;1.70;0.20;;;1.50;99.90;;;;;;5090029;28;20214;-60
2021/01/12 02:29:21;;;;;;;2.13;0.90;;;1.50;99.90;;;;;;5094938;28;20232;-60
2021/01/12 02:31:47;;;;;;;10.75;5.32;;;1.50;99.90;;;;;;5088359;28;20224;-60
2021/01/12 02:34:17;;;;;;;1.70;0.20;;;1.50;99.90;;;;;;5096528;28;20193;-60
2021/01/12 02:36:44;;;;;;;7.25;4.75;;;1.60;99.90;;;;;;5096054;28;20211;-60
2021/01/12 02:39:11;;;;;;;19.90;11.23;;;1.60;99.90;;;;;;5096389;28;20179;-60
2021/01/12 02:41:37;;;;;;;7.15;1.85;;;1.50;99.90;;;;;;5095550;28;20187;-63
2021/01/12 02:44:03;;;;;;;18.47;10.83;;;1.60;99.90;;;;;;5096653;28;20173;-63
2021/01/12 02:46:29;;;;;;;13.60;10.43;;;1.60;99.90;;;;;;5096623;28;20465;-60
2021/01/12 02:48:55;;;;;;;1.75;0.20;;;1.50;99.90;;;;;;5095399;28;20200;-61
2021/01/12 02:51:20;;;;;;;3.50;0.97;;;1.50;99.90;;;;;;5097091;28;20252;-60
2021/01/12 02:53:46;;;;;;;3.83;0.80;;;1.50;99.90;;;;;;5093980;28;20193;-60
2021/01/12 02:56:11;;;;;;;8.83;4.63;;;1.50;99.90;;;;;;5085666;28;20228;-60
2021/01/12 02:58:37;;;;;;;10.53;5.60;;;1.50;99.90;;;;;;5070660;28;20276;-59
2021/01/12 03:01:03;;;;;;;14.43;8.30;;;1.50;99.90;;;;;;5069996;28;20564;-62
2021/01/12 03:03:29;;;;;;;7.40;4.15;;;1.50;99.90;;;;;;5082615;28;20188;-59
2021/01/12 03:05:54;;;;;;;11.80;5.30;;;1.60;99.90;;;;;;5064918;28;20778;-60
2021/01/12 03:08:20;;;;;;;10.37;6.13;;;1.50;99.90;;;;;;5064875;28;20183;-59
2021/01/12 03:10:46;;;;;;;9.43;5.63;;;1.50;99.90;;;;;;5074945;28;20176;-59
2021/01/12 03:13:12;;;;;;;6.43;4.10;;;1.50;99.90;;;;;;5072473;28;20189;-59
2021/01/12 03:15:38;;;;;;;3.87;1.67;;;1.50;99.90;;;;;;5072881;28;20500;-59
2021/01/12 03:18:08;;;;;;;4.45;2.78;;;1.50;99.90;;;;;;5073578;28;20184;-59
2021/01/12 03:20:33;;;;;;;3.92;1.98;;;1.50;99.90;;;;;;5071276;28;20267;-60
2021/01/12 03:23:00;;;;;;;1.73;0.20;;;1.40;99.90;;;;;;5070704;28;20212;-60
2021/01/12 03:25:25;;;;;;;15.82;9.02;;;1.40;99.90;;;;;;5071399;28;20232;-59
2021/01/12 03:27:51;;;;;;;13.83;8.67;;;1.30;99.90;;;;;;5070759;28;20708;-59
2021/01/12 03:30:17;;;;;;;1.70;0.20;;;1.20;99.90;;;;;;5071008;28;20205;-60
2021/01/12 03:32:43;;;;;;;11.93;8.13;;;1.10;99.90;;;;;;5073631;28;20212;-60
2021/01/12 03:35:10;;;;;;;2.90;1.70;;;1.10;99.90;;;;;;5066518;28;20259;-60
2021/01/12 03:37:35;;;;;;;4.90;2.65;;;1.10;99.90;;;;;;5070573;28;20180;-59
2021/01/12 03:40:03;;;;;;;3.13;1.87;;;1.10;99.90;;;;;;5072937;28;20192;-59
2021/01/12 03:42:28;;;;;;;4.13;2.65;;;1.20;99.90;;;;;;5069995;28;20188;-60
2021/01/12 03:44:54;;;;;;;1.70;0.20;;;1.20;99.90;;;;;;5073134;28;20188;-60
2021/01/12 03:47:20;;;;;;;4.80;1.60;;;1.20;99.90;;;;;;5072108;28;20208;-59
2021/01/12 03:49:45;;;;;;;8.60;8.10;;;1.20;99.90;;;;;;5067193;28;20668;-60
2021/01/12 03:52:11;;;;;;;4.43;2.33;;;1.30;99.90;;;;;;5056866;28;20442;-60
2021/01/12 03:54:36;;;;;;;4.07;1.20;;;1.30;99.90;;;;;;5071434;28;20438;-59
2021/01/12 03:57:02;;;;;;;3.10;1.60;;;1.30;99.90;;;;;;5072156;28;20204;-60
2021/01/12 03:59:27;;;;;;;1.70;0.20;;;1.20;99.90;;;;;;5073048;28;20184;-59
2021/01/12 04:01:53;;;;;;;10.53;6.87;;;1.20;99.90;;;;;;5068971;28;20253;-59
2021/01/12 04:04:19;;;;;;;2.63;1.90;;;1.20;99.90;;;;;;5070748;28;20185;-66
2021/01/12 04:06:45;;;;;;;4.82;2.15;;;1.30;99.90;;;;;;5067878;28;20216;-60
2021/01/12 04:09:10;;;;;;;1.70;0.20;;;1.20;99.90;;;;;;5071942;28;20575;-59
2021/01/12 04:11:36;;;;;;;7.77;4.83;;;1.20;99.90;;;;;;5070363;28;20192;-60
2021/01/12 04:14:03;;;;;;;6.88;4.07;;;1.20;99.90;;;;;;5071931;28;20264;-59
2021/01/12 04:16:29;;;;;;;18.67;9.73;;;1.20;99.90;;;;;;5070234;28;20741;-59
2021/01/12 04:18:54;;;;;;;4.63;2.53;;;1.20;99.90;;;;;;5069845;28;20238;-60
2021/01/12 04:21:20;;;;;;;16.10;9.80;;;1.20;99.90;;;;;;5067742;28;20640;-59
2021/01/12 04:23:46;;;;;;;9.03;5.70;;;1.20;99.90;;;;;;5064869;28;20193;-60
2021/01/12 04:26:11;;;;;;;6.63;4.33;;;1.20;99.90;;;;;;5071531;28;20208;-60
2021/01/12 04:28:37;;;;;;;3.80;2.93;;;1.20;99.90;;;;;;5071597;28;20181;-59
2021/01/12 04:31:02;;;;;;;5.30;3.00;;;1.20;99.90;;;;;;5068501;28;20181;-59
2021/01/12 04:33:28;;;;;;;2.03;0.63;;;1.20;99.90;;;;;;5071109;28;20176;-60
2021/01/12 04:35:53;;;;;;;4.80;2.03;;;1.20;99.90;;;;;;5071645;28;20292;-60
2021/01/12 04:38:19;;;;;;;8.10;4.00;;;1.20;99.90;;;;;;5069020;28;20188;-60
2021/01/12 04:40:44;;;;;;;15.93;10.03;;;1.20;99.90;;;;;;5070592;28;20197;-59
2021/01/12 04:43:13;;;;;;;1.70;0.20;;;1.20;99.90;;;;;;5070392;28;20559;-59
2021/01/12 04:45:39;;;;;;;1.70;0.20;;;1.20;99.90;;;;;;5070700;28;20208;-59
2021/01/12 04:48:06;;;;;;;3.35;2.20;;;1.20;99.90;;;;;;5070921;28;20176;-60
2021/01/12 04:50:32;;;;;;;2.25;1.33;;;1.20;99.90;;;;;;5068627;28;20287;-59
2021/01/12 04:52:58;;;;;;;8.32;4.03;;;1.10;99.90;;;;;;5071955;28;20188;-65
2021/01/12 04:55:23;;;;;;;2.43;0.93;;;1.10;99.90;;;;;;5072700;28;20214;-60
2021/01/12 04:57:50;;;;;;;7.73;4.17;;;1.10;99.90;;;;;;5065500;28;20181;-60
2021/01/12 05:00:19;;;;;;;1.70;0.20;;;1.10;99.90;;;;;;5069624;28;20657;-60
2021/01/12 05:03:06;;;;;;;14.25;9.50;;;1.10;99.90;;;;;;5073592;28;20189;-60
2021/01/12 05:05:39;;;;;;;9.32;4.32;;;1.10;99.90;;;;;;5071225;28;20610;-60
2021/01/12 05:08:09;;;;;;;3.35;1.33;;;1.10;99.90;;;;;;5071532;28;20181;-60
2021/01/12 05:10:39;;;;;;;9.70;3.58;;;1.10;99.90;;;;;;5069987;28;20216;-59
2021/01/12 05:13:06;;;;;;;8.57;4.95;;;1.10;99.90;;;;;;5070029;28;20192;-60
2021/01/12 05:15:32;;;;;;;11.93;7.07;;;1.10;99.90;;;;;;5070555;28;20203;-59
2021/01/12 05:18:00;;;;;;;17.07;9.73;;;1.10;99.90;;;;;;5071118;28;20188;-60
2021/01/12 05:20:26;;;;;;;15.65;10.13;;;1.10;99.90;;;;;;5068294;28;20441;-60
2021/01/12 05:23:06;;;;;;;3.55;2.38;;;1.00;99.90;;;;;;5070459;28;20188;-60
2021/01/12 05:25:34;;;;;;;1.90;0.77;;;1.10;99.90;;;;;;5071124;28;20679;-60
2021/01/12 05:28:04;;;;;;;15.48;9.43;;;1.10;99.90;;;;;;5068048;28;20202;-60
2021/01/12 05:30:30;;;;;;;1.70;0.20;;;1.00;99.90;;;;;;5068684;28;20208;-60
2021/01/12 05:32:57;;;;;;;5.00;2.20;;;1.00;99.90;;;;;;5069624;28;20181;-60
2021/01/12 05:35:25;;;;;;;2.05;0.40;;;1.00;99.90;;;;;;5065292;28;20177;-59
2021/01/12 05:37:59;;;;;;;8.60;5.75;;;1.10;99.90;;;;;;5070277;28;20192;-59
2021/01/12 05:40:25;;;;;;;8.48;5.00;;;1.10;99.90;;;;;;5070653;28;20181;-60
2021/01/12 05:42:50;;;;;;;8.10;4.90;;;1.10;99.90;;;;;;5066021;28;20196;-60
2021/01/12 05:45:16;;;;;;;10.77;7.40;;;1.10;99.90;;;;;;5069530;28;20187;-59
2021/01/12 05:47:41;;;;;;;5.47;4.43;;;1.10;99.90;;;;;;5070129;28;20199;-60
2021/01/12 05:50:15;;;;;;;7.53;4.80;;;1.10;99.90;;;;;;5070658;28;20223;-60
2021/01/12 05:52:59;;;;;;;7.75;4.13;;;1.10;99.90;;;;;;5065232;28;20195;-60
2021/01/12 05:55:24;;;;;;;17.90;11.02;;;1.10;99.90;;;;;;5054130;28;20200;-59
2021/01/12 05:57:58;;;;;;;11.77;6.97;;;1.10;99.90;;;;;;5070955;28;20712;-59
2021/01/12 06:00:24;;;;;;;6.03;3.40;;;1.10;99.90;;;;;;5075521;28;20479;-59
2021/01/12 06:02:56;;;;;;;15.90;9.40;;;1.10;99.90;;;;;;5073921;28;20238;-59
2021/01/12 06:05:22;;;;;;;19.15;11.93;;;1.10;99.90;;;;;;5071289;28;20660;-58
2021/01/12 06:07:47;;;;;;;1.70;0.20;;;1.00;99.90;;;;;;5073656;28;20192;-59
2021/01/12 06:10:17;;;;;;;11.10;7.80;;;1.00;99.90;;;;;;5071922;28;20204;-59
2021/01/12 06:12:48;;;;;;;1.90;0.75;;;1.00;99.90;;;;;;5067875;28;20266;-59
2021/01/12 06:15:17;;;;;;;13.18;8.20;;;1.10;99.90;;;;;;5072171;28;20177;-59
2021/01/12 06:17:44;;;;;;;3.40;1.50;;;1.10;99.90;;;;;;5072904;28;20576;-59
2021/01/12 06:20:16;;;;;;;1.75;0.30;;;1.10;99.90;;;;;;5068260;28;20223;-60
2021/01/12 06:22:51;;;;;;;8.70;5.65;;;1.10;99.90;;;;;;5071695;28;20251;-59
2021/01/12 06:25:18;;;;;;;2.28;0.95;;;1.10;99.90;;;;;;5053683;28;20294;-59
2021/01/12 06:27:44;;;;;;;1.70;0.20;;;1.10;99.90;;;;;;5071164;28;20272;-59
2021/01/12 06:30:10;;;;;;;2.45;0.68;;;1.10;99.90;;;;;;5054797;28;20294;-60
2021/01/12 06:32:37;;;;;;;21.98;12.77;;;1.10;99.90;;;;;;5065751;28;20185;-60
2021/01/12 06:35:08;;;;;;;1.70;0.20;;;1.10;99.90;;;;;;5070307;28;20283;-60
2021/01/12 06:37:36;;;;;;;1.70;0.20;;;1.10;99.90;;;;;;5071470;28;20271;-60
2021/01/12 06:40:04;;;;;;;1.88;0.50;;;1.10;99.90;;;;;;5066581;28;20192;-59
2021/01/12 06:42:30;;;;;;;8.32;4.20;;;1.10;99.90;;;;;;5070624;28;20188;-60
2021/01/12 06:44:58;;;;;;;2.97;1.08;;;1.10;99.90;;;;;;5075087;28;20226;-59
2021/01/12 06:47:30;;;;;;;15.48;11.13;;;1.10;99.90;;;;;;5070203;28;20293;-59
2021/01/12 06:50:10;;;;;;;14.25;10.55;;;1.10;99.90;;;;;;5067511;28;20208;-59
2021/01/12 06:52:46;;;;;;;8.55;5.72;;;1.10;99.90;;;;;;5072826;28;20169;-59
2021/01/12 06:55:14;;;;;;;10.23;5.25;;;1.10;99.90;;;;;;5068076;28;20188;-59
2021/01/12 06:57:44;;;;;;;1.70;0.20;;;1.20;99.90;;;;;;5070201;28;20189;-59
2021/01/12 07:00:11;;;;;;;9.27;5.07;;;1.20;99.90;;;;;;5052726;28;20185;-60
2021/01/12 07:02:37;;;;;;;9.65;6.95;;;1.20;99.90;;;;;;5071549;28;20230;-60
2021/01/12 07:05:05;;;;;;;3.33;1.70;;;1.20;99.90;;;;;;5071370;28;20583;-60
2021/01/12 07:07:34;;;;;;;7.20;3.78;;;1.10;99.90;;;;;;5070629;28;20250;-59
2021/01/12 07:10:05;;;;;;;4.82;3.03;;;1.20;99.90;;;;;;5069172;28;20196;-59
2021/01/12 07:12:30;;;;;;;17.38;8.23;;;1.20;99.90;;;;;;5068811;28;20191;-60
2021/01/12 07:15:01;;;;;;;2.53;1.13;;;1.20;99.90;;;;;;5072601;28;20176;-60
2021/01/12 07:17:27;;;;;;;5.30;2.28;;;1.20;99.90;;;;;;5072798;28;20329;-60
2021/01/12 07:20:09;;;;;;;3.60;1.52;;;1.20;99.90;;;;;;5070659;28;20525;-60
2021/01/12 07:22:37;;;;;;;1.70;0.30;;;1.30;99.90;;;;;;5073812;28;20579;-60
2021/01/12 07:25:04;;;;;;;1.60;0.20;;;1.30;99.90;;;;;;5069327;28;20192;-60
2021/01/12 07:27:30;;;;;;;11.50;6.43;;;1.30;99.90;;;;;;5075337;28;20184;-61
2021/01/12 07:29:56;;;;;;;14.03;8.40;;;1.30;99.90;;;;;;5075809;28;20227;-61
2021/01/12 07:32:32;;;;;;;3.10;0.93;;;1.30;99.90;;;;;;5074100;28;20193;-61
2021/01/12 07:35:02;;;;;;;4.35;0.68;;;1.30;99.90;;;;;;5079201;28;20470;-61
2021/01/12 07:37:29;;;;;;;11.20;7.05;;;1.30;99.90;;;;;;5078314;28;20205;-61
2021/01/12 07:39:55;;;;;;;14.52;7.05;;;1.40;99.90;;;;;;5079924;28;20247;-62
2021/01/12 07:42:21;;;;;;;2.08;1.20;;;1.30;99.90;;;;;;5072682;28;20234;-62
2021/01/12 07:44:46;;;;;;;8.03;4.60;;;1.30;99.90;;;;;;5074323;28;20586;-61
2021/01/12 07:47:14;;;;;;;7.83;3.70;;;1.30;99.90;;;;;;5070924;28;20223;-62
2021/01/12 07:49:41;;;;;;;3.25;1.98;;;1.40;99.90;;;;;;5068851;28;20583;-62
2021/01/12 07:52:08;;;;;;;4.57;2.83;;;1.40;99.90;;;;;;5069131;28;20210;-61
2021/01/12 07:54:34;;;;;;;1.80;0.40;;;1.40;99.90;;;;;;5069317;28;20230;-62
2021/01/12 07:57:00;;;;;;;9.85;6.07;;;1.40;99.90;;;;;;5073448;28;20200;-62
2021/01/12 07:59:26;;;;;;;4.72;3.05;;;1.40;99.90;;;;;;5072885;28;20283;-62
2021/01/12 08:01:51;;;;;;;8.40;5.60;;;1.40;99.90;;;;;;5068103;28;20715;-63
2021/01/12 08:04:18;;;;;;;1.70;0.20;;;1.40;99.90;;;;;;5071021;28;20572;-62
2021/01/12 08:06:43;;;;;;;4.05;2.20;;;1.40;99.90;;;;;;5066866;28;20245;-62
2021/01/12 08:09:10;;;;;;;1.80;0.60;;;1.40;99.90;;;;;;5065632;28;20201;-62
2021/01/12 08:11:37;;;;;;;11.88;8.88;;;1.40;99.90;;;;;;5067957;28;20545;-62
2021/01/12 08:14:04;;;;;;;1.80;0.50;;;1.40;99.90;;;;;;5069164;28;20192;-63
2021/01/12 08:16:30;;;;;;;23.10;10.07;;;1.40;99.90;;;;;;5067815;28;20224;-63
2021/01/12 08:18:56;;;;;;;1.70;0.20;;;1.40;99.90;;;;;;5071181;28;20183;-63
2021/01/12 08:21:21;;;;;;;9.33;5.87;;;1.40;99.90;;;;;;5063096;28;20567;-63
2021/01/12 08:23:47;;;;;;;2.33;0.70;;;1.40;99.90;;;;;;5068716;28;20684;-63
2021/01/12 08:26:12;;;;;;;4.63;2.50;;;1.40;99.90;;;;;;5070760;28;20610;-63
2021/01/12 08:28:38;;;;;;;2.10;0.60;;;1.40;99.90;;;;;;5065795;28;20197;-63
2021/01/12 08:31:04;;;;;;;3.03;1.47;;;1.30;99.90;;;;;;5066883;28;20252;-63
2021/01/12 08:33:38;;;;;;;1.70;0.20;;;1.40;99.90;;;;;;5069625;28;20263;-63
2021/01/12 08:36:26;;;;;;;3.25;1.40;;;1.40;99.90;;;;;;5066076;28;20192;-63
2021/01/12 08:38:54;;;;;;;2.45;1.58;;;1.40;99.90;;;;;;5065788;28;20197;-63
2021/01/12 08:41:21;;;;;;;3.78;1.85;;;1.40;99.90;;;;;;5070192;28;20189;-63
2021/01/12 08:43:51;;;;;;;8.75;4.15;;;1.40;99.90;;;;;;5065590;28;20265;-64
2021/01/12 08:46:17;;;;;;;1.70;0.20;;;1.40;99.90;;;;;;5074229;28;20266;-63
2021/01/12 08:48:50;;;;;;;1.70;0.40;;;1.40;99.90;;;;;;5070856;28;20188;-63
2021/01/12 08:51:17;;;;;;;9.40;5.32;;;1.40;99.90;;;;;;5070821;28;20202;-64
2021/01/12 08:53:46;;;;;;;1.70;0.30;;;1.50;99.90;;;;;;5070596;28;20598;-63
2021/01/12 08:56:12;;;;;;;7.05;4.72;;;1.50;99.90;;;;;;5067452;28;20208;-63
2021/01/12 08:58:38;;;;;;;7.50;5.17;;;1.50;99.90;;;;;;5069075;28;20187;-63
2021/01/12 09:01:04;;;;;;;6.20;2.67;;;1.50;99.90;;;;;;5072022;28;20712;-63
2021/01/12 09:03:30;;;;;;;7.07;3.65;;;1.50;99.90;;;;;;5069336;28;20428;-63
2021/01/12 09:05:56;;;;;;;1.90;0.93;;;1.50;99.90;;;;;;5068011;28;20212;-63
2021/01/12 09:08:23;;;;;;;1.70;0.20;;;1.50;99.90;;;;;;5073333;28;20203;-61
2021/01/12 09:10:49;;;;;;;3.00;1.10;;;1.60;99.90;;;;;;5071310;28;20208;-62
2021/01/12 09:13:15;;;;;;;1.70;0.20;;;1.50;99.90;;;;;;5066863;28;20184;-61
2021/01/12 09:15:47;;;;;;;3.70;2.28;;;1.60;99.90;;;;;;5066504;28;20555;-62
2021/01/12 09:18:20;;;;;;;1.70;0.38;;;1.60;99.90;;;;;;5066916;28;20181;-62
2021/01/12 09:20:59;;;;;;;5.03;3.10;;;1.60;99.90;;;;;;5067187;28;20199;-62
2021/01/12 09:23:27;;;;;;;1.70;0.30;;;1.60;99.90;;;;;;5067327;28;20195;-62
2021/01/12 09:26:01;;;;;;;4.35;2.63;;;1.60;99.90;;;;;;5070176;28;20272;-62
2021/01/12 09:28:36;;;;;;;5.10;3.13;;;1.60;99.90;;;;;;5066477;28;20187;-62
2021/01/12 09:31:04;;;;;;;5.50;4.05;;;1.60;99.90;;;;;;5067360;28;20216;-63
2021/01/12 09:33:30;;;;;;;8.27;5.28;;;1.70;99.90;;;;;;5072307;28;20194;-62
2021/01/12 09:36:02;;;;;;;5.23;2.57;;;1.70;99.90;;;;;;5073225;28;20223;-62
2021/01/12 09:38:45;;;;;;;6.60;4.40;;;1.70;99.90;;;;;;5075328;28;20181;-62
2021/01/12 09:41:12;;;;;;;3.83;1.70;;;1.70;99.90;;;;;;5071733;28;20189;-63
2021/01/12 09:43:39;;;;;;;4.28;2.60;;;1.70;99.90;;;;;;5070963;28;20181;-61
2021/01/12 09:46:05;;;;;;;2.80;0.93;;;1.80;99.90;;;;;;5075108;28;20197;-62
2021/01/12 09:48:31;;;;;;;1.70;0.20;;;1.80;99.90;;;;;;5071597;28;20644;-62
2021/01/12 09:50:57;;;;;;;2.30;0.83;;;1.70;99.90;;;;;;5070946;28;20215;-62
2021/01/12 09:53:23;;;;;;;4.17;2.67;;;1.80;99.90;;;;;;5076620;28;20461;-62
2021/01/12 09:55:48;;;;;;;1.70;0.20;;;1.80;99.90;;;;;;5071577;28;20931;-63
2021/01/12 09:58:14;;;;;;;5.87;3.60;;;1.80;99.90;;;;;;5072999;28;20231;-63
2021/01/12 10:00:39;;;;;;;7.77;5.30;;;1.80;99.90;;;;;;5074472;28;20227;-62
2021/01/12 10:03:05;;;;;;;3.60;1.65;;;1.80;99.90;;;;;;5068513;28;20517;-63
2021/01/12 10:05:31;;;;;;;4.57;2.72;;;1.80;99.90;;;;;;5073075;28;20261;-62
2021/01/12 10:07:56;;;;;;;1.77;0.37;;;1.80;99.90;;;;;;5072853;28;20188;-62
2021/01/12 10:10:22;;;;;;;2.30;1.23;;;1.90;99.90;;;;;;5067505;28;20201;-62
2021/01/12 10:12:47;;;;;;;1.80;0.60;;;1.90;99.90;;;;;;5073655;28;20180;-62
2021/01/12 10:15:13;;;;;;;1.90;0.77;;;1.90;99.90;;;;;;5072277;28;20559;-62
2021/01/12 10:17:39;;;;;;;2.13;0.60;;;1.90;99.90;;;;;;5066263;28;20227;-62
2021/01/12 10:20:05;;;;;;;3.70;1.73;;;1.90;99.90;;;;;;5070876;28;20197;-62
2021/01/12 10:22:31;;;;;;;4.97;3.53;;;1.90;99.90;;;;;;5069339;28;20678;-62
2021/01/12 10:24:59;;;;;;;3.20;1.00;;;1.90;99.90;;;;;;5062905;28;20437;-62
2021/01/12 10:27:25;;;;;;;1.80;0.30;;;1.90;99.90;;;;;;5068987;28;20296;-62
2021/01/12 10:29:51;;;;;;;3.43;1.53;;;1.90;99.90;;;;;;5060718;28;20300;-62
2021/01/12 10:32:16;;;;;;;2.10;0.70;;;1.90;99.90;;;;;;5066082;28;20428;-62
2021/01/12 10:34:43;;;;;;;2.30;0.93;;;2.00;99.90;;;;;;5067036;28;20586;-62
2021/01/12 10:37:13;;;;;;;3.50;1.45;;;2.00;99.90;;;;;;5072468;28;20563;-62
2021/01/12 10:39:38;;;;;;;6.07;3.97;;;2.00;99.90;;;;;;5067739;28;20894;-62
2021/01/12 10:42:05;;;;;;;1.70;0.20;;;2.00;99.90;;;;;;5070056;28;20196;-61
2021/01/12 10:44:31;;;;;;;6.03;3.70;;;2.00;99.90;;;;;;5071000;28;20248;-61
2021/01/12 10:46:56;;;;;;;5.57;3.47;;;2.00;99.90;;;;;;5064908;28;20235;-62
2021/01/12 10:49:23;;;;;;;5.20;3.60;;;2.00;99.90;;;;;;5078260;28;20307;-61
2021/01/12 10:52:03;;;;;;;1.90;0.55;;;2.00;99.90;;;;;;5076554;28;20197;-60
2021/01/12 10:54:28;;;;;;;8.10;3.30;;;2.00;99.90;;;;;;5078698;28;20222;-60
2021/01/12 10:56:55;;;;;;;4.03;2.10;;;2.00;99.90;;;;;;5076304;28;20805;-60
2021/01/12 10:59:20;;;;;;;3.55;1.75;;;2.00;99.90;;;;;;5068660;28;20272;-60
2021/01/12 11:01:53;;;;;;;2.70;1.30;;;2.00;99.90;;;;;;5074425;28;20276;-59
2021/01/12 11:04:19;;;;;;;5.55;3.10;;;2.00;99.90;;;;;;5072227;28;20195;-59
2021/01/12 11:06:45;;;;;;;3.80;2.33;;;2.00;99.90;;;;;;5067436;28;20212;-62
2021/01/12 11:09:10;;;;;;;4.18;2.70;;;2.00;99.90;;;;;;5073359;28;20200;-60
2021/01/12 11:11:36;;;;;;;1.90;0.40;;;2.10;99.90;;;;;;5074017;28;20180;-59
2021/01/12 11:14:03;;;;;;;3.27;1.90;;;2.00;99.90;;;;;;5068324;28;20521;-59
2021/01/12 11:16:39;;;;;;;4.28;2.20;;;2.00;99.90;;;;;;5069059;28;20215;-59
2021/01/12 11:19:05;;;;;;;2.40;0.70;;;2.10;99.90;;;;;;5067245;28;20565;-59
2021/01/12 11:21:31;;;;;;;1.90;0.57;;;2.00;99.90;;;;;;5067785;28;20192;-61
2021/01/12 11:23:57;;;;;;;4.63;1.83;;;2.00;99.90;;;;;;5071617;28;20200;-59
2021/01/12 11:26:30;;;;;;;4.72;2.25;;;2.00;99.90;;;;;;5068438;28;20205;-59
2021/01/12 11:28:56;;;;;;;1.67;0.20;;;2.00;99.90;;;;;;5069354;28;20687;-59
2021/01/12 11:31:21;;;;;;;2.73;1.20;;;1.90;99.90;;;;;;5071391;28;20309;-63
2021/01/12 11:33:48;;;;;;;1.80;0.50;;;1.90;99.90;;;;;;5067621;28;20184;-59
2021/01/12 11:36:14;;;;;;;2.97;1.13;;;1.90;99.90;;;;;;5069810;28;20201;-60
2021/01/12 11:38:39;;;;;;;3.17;1.08;;;1.90;99.90;;;;;;5073659;28;20177;-60
2021/01/12 11:41:08;;;;;;;3.83;2.50;;;1.90;99.90;;;;;;5070314;28;20733;-59
2021/01/12 11:43:34;;;;;;;3.03;1.48;;;1.90;99.90;;;;;;5069906;28;20211;-64
2021/01/12 11:45:59;;;;;;;4.13;1.83;;;1.90;99.90;;;;;;5077992;28;20211;-60
2021/01/12 11:48:25;;;;;;;1.70;0.30;;;1.90;99.90;;;;;;5073195;28;20177;-60
2021/01/12 11:50:50;;;;;;;2.30;1.37;;;1.80;99.90;;;;;;5076400;28;20213;-59
2021/01/12 11:53:16;;;;;;;1.63;0.20;;;1.90;99.90;;;;;;5071573;28;20192;-60
2021/01/12 11:55:42;;;;;;;1.70;0.20;;;2.00;99.90;;;;;;5062341;28;20209;-59
2021/01/12 11:58:07;;;;;;;1.63;0.20;;;2.00;99.90;;;;;;5070452;28;20189;-61
2021/01/12 12:00:33;;;;;;;1.60;0.20;;;2.00;99.90;;;;;;5052505;28;20176;-59
2021/01/12 12:02:58;;;;;;;3.20;1.27;;;2.10;99.90;;;;;;5069400;28;20267;-61
2021/01/12 12:05:24;;;;;;;5.00;2.80;;;2.20;99.90;;;;;;5068236;28;20264;-59
2021/01/12 12:07:49;;;;;;;4.33;1.87;;;2.20;99.90;;;;;;5072610;28;20192;-59
2021/01/12 12:10:15;;;;;;;1.70;0.30;;;2.10;99.90;;;;;;5068324;28;20247;-60
2021/01/12 12:12:40;;;;;;;5.43;2.77;;;2.20;99.90;;;;;;5070317;28;20192;-63
2021/01/12 12:15:06;;;;;;;4.03;1.80;;;2.10;99.90;;;;;;5069970;28;20184;-59
2021/01/12 12:17:32;;;;;;;2.35;0.73;;;2.10;99.90;;;;;;5070686;28;20271;-59
2021/01/12 12:19:58;;;;;;;5.50;2.33;;;2.20;99.90;;;;;;5069052;28;20223;-58
2021/01/12 12:22:23;;;;;;;2.77;1.20;;;2.20;99.90;;;;;;5067609;28;20195;-59
2021/01/12 12:24:49;;;;;;;1.70;0.20;;;2.20;99.90;;;;;;5067976;28;20207;-60
2021/01/12 12:27:21;;;;;;;1.70;0.20;;;2.10;99.90;;;;;;5069555;28;20219;-59
2021/01/12 12:29:47;;;;;;;2.70;1.38;;;2.20;99.90;;;;;;5068783;28;20223;-59
2021/01/12 12:32:12;;;;;;;20.93;4.43;;;2.20;99.90;;;;;;5070520;28;20176;-59
2021/01/12 12:34:38;;;;;;;2.63;0.93;;;2.20;99.90;;;;;;5069158;28;20199;-58
2021/01/12 12:37:09;;;;;;;1.70;0.30;;;2.20;99.90;;;;;;5065753;28;20262;-58
2021/01/12 12:39:35;;;;;;;4.75;1.30;;;2.20;99.90;;;;;;5068115;28;20180;-61
2021/01/12 12:42:00;;;;;;;1.70;0.30;;;2.20;99.90;;;;;;5071338;28;20251;-58
2021/01/12 12:44:26;;;;;;;2.43;1.07;;;2.30;99.90;;;;;;5066259;28;20216;-59
2021/01/12 12:46:52;;;;;;;4.13;1.47;;;2.30;99.90;;;;;;5071644;28;20258;-58
2021/01/12 12:49:17;;;;;;;2.27;0.77;;;2.30;99.90;;;;;;5068948;28;20199;-58
2021/01/12 12:51:43;;;;;;;3.60;1.50;;;2.30;99.90;;;;;;5069282;28;20234;-58
2021/01/12 12:54:08;;;;;;;1.90;0.50;;;2.30;99.90;;;;;;5069241;28;20247;-59
2021/01/12 12:56:34;;;;;;;1.70;0.20;;;2.30;99.90;;;;;;5068205;28;20211;-59